createdAt,value
2023-01-17T00:00:00.597Z,1.6
2023-01-17T00:01:00.469Z,1.6
2023-01-17T00:02:00.426Z,1.6
2023-01-17T00:03:00.469Z,1.6
2023-01-17T00:04:00.544Z,1.6
2023-01-17T00:05:00.517Z,1.5
2023-01-17T00:06:00.603Z,1.5
2023-01-17T00:07:00.589Z,1.5
2023-01-17T00:08:00.446Z,1.5
2023-01-17T00:09:00.450Z,1.5
2023-01-17T00:10:00.435Z,1.4
2023-01-17T00:11:00.487Z,1.4
2023-01-17T00:12:00.544Z,1.4
2023-01-17T00:13:00.605Z,1.4
2023-01-17T00:14:00.438Z,1.4
2023-01-17T00:15:00.507Z,1.4
2023-01-17T00:16:00.489Z,1.4
2023-01-17T00:17:00.480Z,1.3
2023-01-17T00:18:00.502Z,1.4
2023-01-17T00:19:00.597Z,1.3
2023-01-17T00:20:00.457Z,1.4
2023-01-17T00:21:00.464Z,1.3
2023-01-17T00:22:00.480Z,1.3
2023-01-17T00:23:00.438Z,1.3
2023-01-17T00:24:00.497Z,1.3
2023-01-17T00:25:00.556Z,1.3
2023-01-17T00:26:00.435Z,1.2
2023-01-17T00:27:00.488Z,1.2
2023-01-17T00:28:00.432Z,1.2
2023-01-17T00:29:00.653Z,1.1
2023-01-17T00:30:00.476Z,1.1
2023-01-17T00:31:00.576Z,1.0
2023-01-17T00:32:00.402Z,1.0
2023-01-17T00:33:00.433Z,1.0
2023-01-17T00:34:00.443Z,1.0
2023-01-17T00:35:00.462Z,0.9
2023-01-17T00:36:00.417Z,0.9
2023-01-17T00:37:00.678Z,0.9
2023-01-17T00:38:00.493Z,0.9
2023-01-17T00:39:00.474Z,0.8
2023-01-17T00:40:00.533Z,0.8
2023-01-17T00:41:00.490Z,0.8
2023-01-17T00:42:00.414Z,0.8
2023-01-17T00:43:00.431Z,0.8
2023-01-17T00:44:00.565Z,0.8
2023-01-17T00:45:00.438Z,0.8
2023-01-17T00:46:00.499Z,0.8
2023-01-17T00:47:00.441Z,0.8
2023-01-17T00:48:00.432Z,0.8
2023-01-17T00:49:00.414Z,0.7
2023-01-17T00:50:00.505Z,0.7
2023-01-17T00:51:00.525Z,0.7
2023-01-17T00:52:00.584Z,0.7
2023-01-17T00:53:00.486Z,0.7
2023-01-17T00:54:00.429Z,0.7
2023-01-17T00:55:00.568Z,0.7
2023-01-17T00:56:00.479Z,0.7
2023-01-17T00:57:00.461Z,0.6
2023-01-17T00:58:00.630Z,0.6
2023-01-17T00:59:00.673Z,0.6
2023-01-17T01:00:00.443Z,0.6
2023-01-17T01:01:00.584Z,0.6
2023-01-17T01:02:00.814Z,0.6
2023-01-17T01:03:00.481Z,0.6
2023-01-17T01:04:00.427Z,0.6
2023-01-17T01:05:00.405Z,0.6
2023-01-17T01:06:00.431Z,0.6
2023-01-17T01:07:00.441Z,0.6
2023-01-17T01:08:00.574Z,0.6
2023-01-17T01:09:00.460Z,0.6
2023-01-17T01:10:00.409Z,0.6
2023-01-17T01:11:00.463Z,0.6
2023-01-17T01:12:00.511Z,0.6
2023-01-17T01:13:00.470Z,0.6
2023-01-17T01:14:00.510Z,0.6
2023-01-17T01:15:00.455Z,0.6
2023-01-17T01:16:00.458Z,0.6
2023-01-17T01:17:00.405Z,0.5
2023-01-17T01:18:00.519Z,0.5
2023-01-17T01:19:00.431Z,0.6
2023-01-17T01:20:00.436Z,0.5
2023-01-17T01:21:00.400Z,0.6
2023-01-17T01:22:00.514Z,0.5
2023-01-17T01:23:00.426Z,0.6
2023-01-17T01:24:00.434Z,0.5
2023-01-17T01:25:00.482Z,0.6
2023-01-17T01:26:00.430Z,0.5
2023-01-17T01:27:00.430Z,0.5
2023-01-17T01:28:00.550Z,0.5
2023-01-17T01:29:00.531Z,0.6
2023-01-17T01:30:00.497Z,0.6
2023-01-17T01:31:00.509Z,0.6
2023-01-17T01:32:00.669Z,0.6
2023-01-17T01:33:00.464Z,0.6
2023-01-17T01:34:00.522Z,0.6
2023-01-17T01:35:00.628Z,0.6
2023-01-17T01:36:00.406Z,0.6
2023-01-17T01:37:00.454Z,0.6
2023-01-17T01:38:00.578Z,0.6
2023-01-17T01:39:00.447Z,0.5
2023-01-17T01:40:00.467Z,0.5
2023-01-17T01:41:00.468Z,0.5
2023-01-17T01:42:00.471Z,0.5
2023-01-17T01:43:00.454Z,0.5
2023-01-17T01:44:00.485Z,0.5
2023-01-17T01:45:00.408Z,0.4
2023-01-17T01:46:00.417Z,0.4
2023-01-17T01:47:00.486Z,0.4
2023-01-17T01:48:00.428Z,0.4
2023-01-17T01:49:00.548Z,0.4
2023-01-17T01:50:00.531Z,0.4
2023-01-17T01:51:00.428Z,0.4
2023-01-17T01:52:00.471Z,0.4
2023-01-17T01:53:00.438Z,0.4
2023-01-17T01:54:00.485Z,0.4
2023-01-17T01:55:00.640Z,0.4
2023-01-17T01:56:00.503Z,0.4
2023-01-17T01:57:00.649Z,0.4
2023-01-17T01:58:00.519Z,0.4
2023-01-17T01:59:00.548Z,0.4
2023-01-17T02:00:00.534Z,0.4
2023-01-17T02:01:00.887Z,0.4
2023-01-17T02:02:00.468Z,0.4
2023-01-17T02:03:00.471Z,0.4
2023-01-17T02:04:00.459Z,0.4
2023-01-17T02:05:01.942Z,0.4
2023-01-17T02:06:00.581Z,0.4
2023-01-17T02:07:00.644Z,0.4
2023-01-17T02:08:00.533Z,0.4
2023-01-17T02:09:00.524Z,0.4
2023-01-17T02:10:00.430Z,0.4
2023-01-17T02:11:00.524Z,0.4
2023-01-17T02:12:00.508Z,0.4
2023-01-17T02:13:00.526Z,0.4
2023-01-17T02:14:00.870Z,0.4
2023-01-17T02:15:00.532Z,0.4
2023-01-17T02:16:00.610Z,0.4
2023-01-17T02:17:00.466Z,0.4
2023-01-17T02:18:00.489Z,0.4
2023-01-17T02:19:00.457Z,0.4
2023-01-17T02:20:00.500Z,0.4
2023-01-17T02:21:00.497Z,0.4
2023-01-17T02:22:00.503Z,0.4
2023-01-17T02:23:00.459Z,0.4
2023-01-17T02:24:00.464Z,0.4
2023-01-17T02:25:00.454Z,0.4
2023-01-17T02:26:00.528Z,0.5
2023-01-17T02:27:00.456Z,0.5
2023-01-17T02:28:00.411Z,0.5
2023-01-17T02:29:00.473Z,0.5
2023-01-17T02:30:00.463Z,0.5
2023-01-17T02:31:00.476Z,0.5
2023-01-17T02:32:00.510Z,0.5
2023-01-17T02:33:00.415Z,0.5
2023-01-17T02:34:00.450Z,0.5
2023-01-17T02:35:00.541Z,0.5
2023-01-17T02:36:00.439Z,0.5
2023-01-17T02:37:00.568Z,0.5
2023-01-17T02:38:00.658Z,0.5
2023-01-17T02:39:00.449Z,0.5
2023-01-17T02:40:00.498Z,0.5
2023-01-17T02:41:00.401Z,0.5
2023-01-17T02:42:00.451Z,0.5
2023-01-17T02:43:00.402Z,0.5
2023-01-17T02:44:00.574Z,0.5
2023-01-17T02:45:00.443Z,0.5
2023-01-17T02:46:00.458Z,0.5
2023-01-17T02:47:00.471Z,0.5
2023-01-17T02:48:00.413Z,0.5
2023-01-17T02:49:00.413Z,0.5
2023-01-17T02:50:00.503Z,0.5
2023-01-17T02:51:00.480Z,0.5
2023-01-17T02:52:00.532Z,0.5
2023-01-17T02:53:00.431Z,0.5
2023-01-17T02:54:00.434Z,0.5
2023-01-17T02:55:00.405Z,0.5
2023-01-17T02:56:00.514Z,0.4
2023-01-17T02:57:00.406Z,0.4
2023-01-17T02:58:00.440Z,0.4
2023-01-17T02:59:00.430Z,0.4
2023-01-17T03:00:00.449Z,0.4
2023-01-17T03:01:00.559Z,0.4
2023-01-17T03:02:01.007Z,0.5
2023-01-17T03:03:00.429Z,0.5
2023-01-17T03:04:00.445Z,0.4
2023-01-17T03:05:00.402Z,0.4
2023-01-17T03:06:00.540Z,0.4
2023-01-17T03:07:00.520Z,0.4
2023-01-17T03:08:00.567Z,0.4
2023-01-17T03:09:00.403Z,0.4
2023-01-17T03:10:00.430Z,0.4
2023-01-17T03:11:00.524Z,0.4
2023-01-17T03:12:00.419Z,0.4
2023-01-17T03:13:00.545Z,0.4
2023-01-17T03:14:00.639Z,0.4
2023-01-17T03:15:00.440Z,0.4
2023-01-17T03:16:00.401Z,0.4
2023-01-17T03:17:00.456Z,0.4
2023-01-17T03:18:00.468Z,0.4
2023-01-17T03:19:00.441Z,0.3
2023-01-17T03:20:00.532Z,0.3
2023-01-17T03:21:00.435Z,0.3
2023-01-17T03:22:00.472Z,0.3
2023-01-17T03:23:00.438Z,0.3
2023-01-17T03:24:00.460Z,0.2
2023-01-17T03:25:00.401Z,0.2
2023-01-17T03:26:00.529Z,0.2
2023-01-17T03:27:00.438Z,0.2
2023-01-17T03:28:00.438Z,0.2
2023-01-17T03:29:00.433Z,0.2
2023-01-17T03:30:00.464Z,0.2
2023-01-17T03:31:00.515Z,0.2
2023-01-17T03:32:00.547Z,0.2
2023-01-17T03:33:00.480Z,0.2
2023-01-17T03:34:00.479Z,0.2
2023-01-17T03:35:00.557Z,0.2
2023-01-17T03:36:00.466Z,0.2
2023-01-17T03:37:00.634Z,0.2
2023-01-17T03:38:00.541Z,0.1
2023-01-17T03:39:00.436Z,0.1
2023-01-17T03:40:00.509Z,0.1
2023-01-17T03:41:00.553Z,0.1
2023-01-17T03:42:00.423Z,0.1
2023-01-17T03:43:00.590Z,0.1
2023-01-17T03:44:00.432Z,0.1
2023-01-17T03:45:00.421Z,0.1
2023-01-17T03:46:00.552Z,0.1
2023-01-17T03:47:00.531Z,0.1
2023-01-17T03:48:00.432Z,0.1
2023-01-17T03:49:00.687Z,0.1
2023-01-17T03:50:00.427Z,0.1
2023-01-17T03:51:00.435Z,0.1
2023-01-17T03:52:00.431Z,0.1
2023-01-17T03:53:00.663Z,0.1
2023-01-17T03:54:00.428Z,0.1
2023-01-17T03:55:00.599Z,0.1
2023-01-17T03:56:00.424Z,0.1
2023-01-17T03:57:00.402Z,0.1
2023-01-17T03:58:00.430Z,0.1
2023-01-17T03:59:00.428Z,0.1
2023-01-17T04:00:00.433Z,0.1
2023-01-17T04:01:00.702Z,0.1
2023-01-17T04:02:00.532Z,0.1
2023-01-17T04:03:00.422Z,0.1
2023-01-17T04:04:00.491Z,0.1
2023-01-17T04:05:00.468Z,0.1
2023-01-17T04:06:00.407Z,0.1
2023-01-17T04:07:00.637Z,0.1
2023-01-17T04:08:00.567Z,0.1
2023-01-17T04:09:00.401Z,0.1
2023-01-17T04:10:00.453Z,0.2
2023-01-17T04:11:00.518Z,0.2
2023-01-17T04:12:00.428Z,0.2
2023-01-17T04:13:00.684Z,0.2
2023-01-17T04:14:00.500Z,0.3
2023-01-17T04:15:00.482Z,0.3
2023-01-17T04:16:00.436Z,0.4
2023-01-17T04:17:00.408Z,0.4
2023-01-17T04:18:00.463Z,0.4
2023-01-17T04:19:00.515Z,0.4
2023-01-17T04:20:00.482Z,0.5
2023-01-17T04:21:00.452Z,0.5
2023-01-17T04:22:00.409Z,0.6
2023-01-17T04:23:00.559Z,0.6
2023-01-17T04:24:00.431Z,0.6
2023-01-17T04:25:00.557Z,0.6
2023-01-17T04:26:00.463Z,0.6
2023-01-17T04:27:00.408Z,0.7
2023-01-17T04:28:00.448Z,0.7
2023-01-17T04:29:00.436Z,0.7
2023-01-17T04:30:00.460Z,0.8
2023-01-17T04:31:00.623Z,0.8
2023-01-17T04:32:00.426Z,0.9
2023-01-17T04:33:00.561Z,0.9
2023-01-17T04:34:00.434Z,0.9
2023-01-17T04:35:00.439Z,0.9
2023-01-17T04:36:00.432Z,1.0
2023-01-17T04:37:00.480Z,1.0
2023-01-17T04:38:00.635Z,1.0
2023-01-17T04:39:00.652Z,1.1
2023-01-17T04:40:00.411Z,1.1
2023-01-17T04:41:00.479Z,1.3
2023-01-17T04:42:00.480Z,1.4
2023-01-17T04:43:00.539Z,1.5
2023-01-17T04:44:00.485Z,1.6
2023-01-17T04:45:00.579Z,1.8
2023-01-17T04:46:00.463Z,2.0
2023-01-17T04:47:00.444Z,2.1
2023-01-17T04:48:00.468Z,2.3
2023-01-17T04:49:00.407Z,2.5
2023-01-17T04:50:00.438Z,2.6
2023-01-17T04:51:00.569Z,2.7
2023-01-17T04:52:00.478Z,2.7
2023-01-17T04:53:00.631Z,2.5
2023-01-17T04:54:00.467Z,2.4
2023-01-17T04:55:00.452Z,2.3
2023-01-17T04:56:00.408Z,2.2
2023-01-17T04:57:00.667Z,2.1
2023-01-17T04:58:00.437Z,2.0
2023-01-17T04:59:00.445Z,1.9
2023-01-17T05:00:00.434Z,1.9
2023-01-17T05:01:00.531Z,1.8
2023-01-17T05:02:00.582Z,1.8
2023-01-17T05:03:00.606Z,1.7
2023-01-17T05:04:00.511Z,1.7
2023-01-17T05:05:00.438Z,1.7
2023-01-17T05:06:00.524Z,1.7
2023-01-17T05:07:00.450Z,1.7
2023-01-17T05:08:00.588Z,1.8
2023-01-17T05:09:00.581Z,1.8
2023-01-17T05:10:00.490Z,1.8
2023-01-17T05:11:00.491Z,1.8
2023-01-17T05:12:00.483Z,1.8
2023-01-17T05:13:00.458Z,1.8
2023-01-17T05:14:00.456Z,1.9
2023-01-17T05:15:00.596Z,1.9
2023-01-17T05:16:00.578Z,1.9
2023-01-17T05:17:00.418Z,2.0
2023-01-17T05:18:00.401Z,2.0
2023-01-17T05:19:00.464Z,2.1
2023-01-17T05:20:00.464Z,2.1
2023-01-17T05:21:00.517Z,2.2
2023-01-17T05:22:00.547Z,2.3
2023-01-17T05:23:00.622Z,2.4
2023-01-17T05:24:00.568Z,2.5
2023-01-17T05:25:00.455Z,2.6
2023-01-17T05:26:00.447Z,2.7
2023-01-17T05:27:00.412Z,2.9
2023-01-17T05:28:00.472Z,3.0
2023-01-17T05:29:00.449Z,3.1
2023-01-17T05:30:00.509Z,3.2
2023-01-17T05:31:00.473Z,3.2
2023-01-17T05:32:00.612Z,3.3
2023-01-17T05:33:00.445Z,4.0
2023-01-17T05:34:00.463Z,4.4
2023-01-17T05:35:00.476Z,5.3
2023-01-17T05:36:00.619Z,5.4
2023-01-17T05:37:00.425Z,5.1
2023-01-17T05:38:00.519Z,5.5
2023-01-17T05:39:00.503Z,5.1
2023-01-17T05:40:00.493Z,4.8
2023-01-17T05:41:00.446Z,4.9
2023-01-17T05:42:00.478Z,5.3
2023-01-17T05:43:00.448Z,5.2
2023-01-17T05:44:00.427Z,5.3
2023-01-17T05:45:00.535Z,5.9
2023-01-17T05:46:00.511Z,6.6
2023-01-17T05:47:00.543Z,7.4
2023-01-17T05:48:00.442Z,8.1
2023-01-17T05:49:00.456Z,8.8
2023-01-17T05:50:00.505Z,9.3
2023-01-17T05:51:00.400Z,9.9
2023-01-17T05:52:00.571Z,10.3
2023-01-17T05:53:00.563Z,10.7
2023-01-17T05:54:00.498Z,11.2
2023-01-17T05:55:00.468Z,11.5
2023-01-17T05:56:00.444Z,11.7
2023-01-17T05:57:00.469Z,12.0
2023-01-17T05:58:00.434Z,12.2
2023-01-17T05:59:00.765Z,12.4
2023-01-17T06:00:00.432Z,12.6
2023-01-17T06:01:00.462Z,12.7
2023-01-17T06:02:00.435Z,12.9
2023-01-17T06:03:00.481Z,13.0
2023-01-17T06:04:00.522Z,13.2
2023-01-17T06:05:03.275Z,13.5
2023-01-17T06:06:00.504Z,13.8
2023-01-17T06:07:00.521Z,14.0
2023-01-17T06:08:00.508Z,14.2
2023-01-17T06:09:00.412Z,14.3
2023-01-17T06:10:00.509Z,14.4
2023-01-17T06:11:00.686Z,14.6
2023-01-17T06:12:00.484Z,14.8
2023-01-17T06:13:00.513Z,14.9
2023-01-17T06:14:00.448Z,15.1
2023-01-17T06:15:00.430Z,15.1
2023-01-17T06:16:00.499Z,15.2
2023-01-17T06:17:00.591Z,15.2
2023-01-17T06:18:00.417Z,15.3
2023-01-17T06:19:00.428Z,15.2
2023-01-17T06:20:00.480Z,15.3
2023-01-17T06:21:00.470Z,15.4
2023-01-17T06:22:00.486Z,15.5
2023-01-17T06:23:00.647Z,15.7
2023-01-17T06:24:02.240Z,16.1
2023-01-17T06:25:00.641Z,16.4
2023-01-17T06:26:00.434Z,16.6
2023-01-17T06:27:00.607Z,16.9
2023-01-17T06:28:00.525Z,17.2
2023-01-17T06:29:00.663Z,17.4
2023-01-17T06:30:00.491Z,17.5
2023-01-17T06:31:00.551Z,17.6
2023-01-17T06:32:01.740Z,17.8
2023-01-17T06:33:00.757Z,17.6
2023-01-17T06:34:00.460Z,16.1
2023-01-17T06:35:00.471Z,14.4
2023-01-17T06:36:00.478Z,13.1
2023-01-17T06:37:00.477Z,12.1
2023-01-17T06:38:00.698Z,11.3
2023-01-17T06:39:00.496Z,10.5
2023-01-17T06:40:00.497Z,9.9
2023-01-17T06:41:00.509Z,9.4
2023-01-17T06:42:00.707Z,9.0
2023-01-17T06:43:00.472Z,8.6
2023-01-17T06:44:00.496Z,8.2
2023-01-17T06:45:00.542Z,7.9
2023-01-17T06:46:00.559Z,7.6
2023-01-17T06:47:00.419Z,7.4
2023-01-17T06:48:00.428Z,7.2
2023-01-17T06:49:00.470Z,7.2
2023-01-17T06:50:00.634Z,7.0
2023-01-17T06:51:00.416Z,6.8
2023-01-17T06:52:00.461Z,6.7
2023-01-17T06:53:00.432Z,6.6
2023-01-17T06:54:00.412Z,6.6
2023-01-17T06:55:00.589Z,6.6
2023-01-17T06:56:00.491Z,6.5
2023-01-17T06:57:00.508Z,6.5
2023-01-17T06:58:00.438Z,6.5
2023-01-17T06:59:00.510Z,6.5
2023-01-17T07:00:00.414Z,6.5
2023-01-17T07:01:00.513Z,6.5
2023-01-17T07:02:00.556Z,6.4
2023-01-17T07:03:00.565Z,6.4
2023-01-17T07:04:00.503Z,6.5
2023-01-17T07:05:00.438Z,6.5
2023-01-17T07:06:00.623Z,6.6
2023-01-17T07:07:00.707Z,6.6
2023-01-17T07:08:00.503Z,6.6
2023-01-17T07:09:00.681Z,6.8
2023-01-17T07:10:00.536Z,6.8
2023-01-17T07:11:00.486Z,6.9
2023-01-17T07:12:00.509Z,7.1
2023-01-17T07:13:00.526Z,7.2
2023-01-17T07:14:00.449Z,7.2
2023-01-17T07:15:00.660Z,7.2
2023-01-17T07:16:00.662Z,7.2
2023-01-17T07:17:00.516Z,7.2
2023-01-17T07:18:00.593Z,7.2
2023-01-17T07:19:00.518Z,7.0
2023-01-17T07:20:00.509Z,7.1
2023-01-17T07:21:00.588Z,7.1
2023-01-17T07:22:00.553Z,7.2
2023-01-17T07:23:00.480Z,7.2
2023-01-17T07:24:00.487Z,7.3
2023-01-17T07:25:00.512Z,7.4
2023-01-17T07:26:00.569Z,7.5
2023-01-17T07:27:00.654Z,7.6
2023-01-17T07:28:00.689Z,7.7
2023-01-17T07:29:00.511Z,7.9
2023-01-17T07:30:00.845Z,8.4
2023-01-17T07:31:00.601Z,8.7
2023-01-17T07:32:00.605Z,9.0
2023-01-17T07:33:00.737Z,9.1
2023-01-17T07:34:00.793Z,9.1
2023-01-17T07:35:00.804Z,9.1
2023-01-17T07:36:00.534Z,9.1
2023-01-17T07:37:00.629Z,9.3
2023-01-17T07:38:00.420Z,9.4
2023-01-17T07:39:00.567Z,9.4
2023-01-17T07:40:00.447Z,9.3
2023-01-17T07:41:00.547Z,9.3
2023-01-17T07:42:00.796Z,9.3
2023-01-17T07:43:00.630Z,9.3
2023-01-17T07:44:00.588Z,9.1
2023-01-17T07:45:01.612Z,8.9
2023-01-17T07:46:02.118Z,8.7
2023-01-17T07:47:00.442Z,8.5
2023-01-17T07:48:00.504Z,8.5
2023-01-17T07:49:00.559Z,8.5
2023-01-17T07:50:00.518Z,8.4
2023-01-17T07:51:00.670Z,8.3
2023-01-17T07:52:00.425Z,8.3
2023-01-17T07:53:00.645Z,8.2
2023-01-17T07:54:00.498Z,8.1
2023-01-17T07:55:00.482Z,8.1
2023-01-17T07:56:00.474Z,8.3
2023-01-17T07:57:00.735Z,8.2
2023-01-17T07:58:02.842Z,8.2
2023-01-17T07:59:00.473Z,8.0
2023-01-17T08:00:00.482Z,7.9
2023-01-17T08:01:00.563Z,7.7
2023-01-17T08:02:00.720Z,7.6
2023-01-17T08:03:00.539Z,7.4
2023-01-17T08:04:00.528Z,7.4
2023-01-17T08:05:00.461Z,7.5
2023-01-17T08:06:00.717Z,7.4
2023-01-17T08:07:00.559Z,7.5
2023-01-17T08:08:00.489Z,7.5
2023-01-17T08:09:00.540Z,7.7
2023-01-17T08:10:00.539Z,7.7
2023-01-17T08:11:00.432Z,7.8
2023-01-17T08:12:00.766Z,7.9
2023-01-17T08:13:00.483Z,7.8
2023-01-17T08:14:00.511Z,7.8
2023-01-17T08:15:00.506Z,7.9
2023-01-17T08:16:00.552Z,8.1
2023-01-17T08:17:00.516Z,8.1
2023-01-17T08:18:00.670Z,8.1
2023-01-17T08:19:00.516Z,8.2
2023-01-17T08:20:00.525Z,8.4
2023-01-17T08:21:00.488Z,8.5
2023-01-17T08:22:00.536Z,8.6
2023-01-17T08:23:00.595Z,8.7
2023-01-17T08:24:00.643Z,8.8
2023-01-17T08:25:00.539Z,8.9
2023-01-17T08:26:00.440Z,9.0
2023-01-17T08:27:00.431Z,9.0
2023-01-17T08:28:00.450Z,9.1
2023-01-17T08:29:00.611Z,9.2
2023-01-17T08:30:00.567Z,9.4
2023-01-17T08:31:00.433Z,9.6
2023-01-17T08:32:00.437Z,9.8
2023-01-17T08:33:00.436Z,9.7
2023-01-17T08:34:00.467Z,9.6
2023-01-17T08:35:00.436Z,9.6
2023-01-17T08:36:00.552Z,9.6
2023-01-17T08:37:00.445Z,9.6
2023-01-17T08:38:00.549Z,9.9
2023-01-17T08:39:00.437Z,11.4
2023-01-17T08:40:00.480Z,13.6
2023-01-17T08:41:00.500Z,13.3
2023-01-17T08:42:00.529Z,14.4
2023-01-17T08:43:00.467Z,14.3
2023-01-17T08:44:00.430Z,15.1
2023-01-17T08:45:00.440Z,15.6
2023-01-17T08:46:00.536Z,16.6
2023-01-17T08:47:00.399Z,17.7
2023-01-17T08:48:00.530Z,17.6
2023-01-17T08:49:00.469Z,18.5
2023-01-17T08:50:00.476Z,18.3
2023-01-17T08:51:00.457Z,18.1
2023-01-17T08:52:00.482Z,18.2
2023-01-17T08:53:01.375Z,18.2
2023-01-17T08:54:00.563Z,17.2
2023-01-17T08:55:00.451Z,17.7
2023-01-17T08:56:00.491Z,17.7
2023-01-17T08:57:00.521Z,18.7
2023-01-17T08:58:00.466Z,19.5
2023-01-17T08:59:00.502Z,19.8
2023-01-17T09:00:00.563Z,20.1
2023-01-17T09:01:00.559Z,20.6
2023-01-17T09:02:00.707Z,20.7
2023-01-17T09:03:00.448Z,20.9
2023-01-17T09:04:00.546Z,21.2
2023-01-17T09:05:00.549Z,21.4
2023-01-17T09:06:00.516Z,21.6
2023-01-17T09:07:00.473Z,22.0
2023-01-17T09:08:00.541Z,22.0
2023-01-17T09:09:00.559Z,21.7
2023-01-17T09:10:00.415Z,21.8
2023-01-17T09:11:00.421Z,22.1
2023-01-17T09:12:00.557Z,22.3
2023-01-17T09:13:00.586Z,22.6
2023-01-17T09:14:00.445Z,22.3
2023-01-17T09:15:00.439Z,21.8
2023-01-17T09:16:00.451Z,21.3
2023-01-17T09:17:00.436Z,21.1
2023-01-17T09:18:00.611Z,21.2
2023-01-17T09:19:00.452Z,21.6
2023-01-17T09:20:00.483Z,22.2
2023-01-17T09:21:00.523Z,22.5
2023-01-17T09:22:00.462Z,22.7
2023-01-17T09:23:00.491Z,22.8
2023-01-17T09:24:00.634Z,23.1
2023-01-17T09:25:00.510Z,23.2
2023-01-17T09:26:00.475Z,23.1
2023-01-17T09:27:00.432Z,23.1
2023-01-17T09:28:00.405Z,23.3
2023-01-17T09:29:00.407Z,23.3
2023-01-17T09:30:00.606Z,23.3
2023-01-17T09:31:00.512Z,23.5
2023-01-17T09:32:00.445Z,23.6
2023-01-17T09:33:00.425Z,23.4
2023-01-17T09:34:00.435Z,23.0
2023-01-17T09:35:00.418Z,22.6
2023-01-17T09:36:00.569Z,22.8
2023-01-17T09:37:00.461Z,23.0
2023-01-17T09:38:00.409Z,22.8
2023-01-17T09:39:00.477Z,22.6
2023-01-17T09:40:00.894Z,22.3
2023-01-17T09:41:00.533Z,22.1
2023-01-17T09:42:00.571Z,22.2
2023-01-17T09:43:00.591Z,22.3
2023-01-17T09:44:00.519Z,22.0
2023-01-17T09:45:00.468Z,21.8
2023-01-17T09:46:00.494Z,21.5
2023-01-17T09:47:00.482Z,22.0
2023-01-17T09:48:00.432Z,22.4
2023-01-17T09:49:00.582Z,22.7
2023-01-17T09:50:00.441Z,22.8
2023-01-17T09:51:00.457Z,22.7
2023-01-17T09:52:00.437Z,22.7
2023-01-17T09:53:00.443Z,22.8
2023-01-17T09:54:00.551Z,22.9
2023-01-17T09:55:00.536Z,22.8
2023-01-17T09:56:00.498Z,22.6
2023-01-17T09:57:00.462Z,22.6
2023-01-17T09:58:00.464Z,22.7
2023-01-17T09:59:00.627Z,22.5
2023-01-17T10:00:03.494Z,22.4
2023-01-17T10:01:00.559Z,22.2
2023-01-17T10:02:00.714Z,22.0
2023-01-17T10:03:00.522Z,22.1
2023-01-17T10:04:00.515Z,22.1
2023-01-17T10:05:00.650Z,22.1
2023-01-17T10:06:00.536Z,22.2
2023-01-17T10:07:00.465Z,22.3
2023-01-17T10:08:02.026Z,22.4
2023-01-17T10:09:00.576Z,22.3
2023-01-17T10:10:00.455Z,22.1
2023-01-17T10:11:00.738Z,22.2
2023-01-17T10:12:00.529Z,22.1
2023-01-17T10:13:00.481Z,22.1
2023-01-17T10:14:00.864Z,22.3
2023-01-17T10:15:00.501Z,22.5
2023-01-17T10:16:00.971Z,22.6
2023-01-17T10:17:00.591Z,22.5
2023-01-17T10:18:00.500Z,22.6
2023-01-17T10:19:00.507Z,22.3
2023-01-17T10:20:00.579Z,22.6
2023-01-17T10:21:00.478Z,22.8
2023-01-17T10:22:00.482Z,22.6
2023-01-17T10:23:00.487Z,22.4
2023-01-17T10:24:00.585Z,22.5
2023-01-17T10:25:00.461Z,22.3
2023-01-17T10:26:00.746Z,22.2
2023-01-17T10:27:00.437Z,22.0
2023-01-17T10:28:00.418Z,21.8
2023-01-17T10:29:00.430Z,21.7
2023-01-17T10:30:00.438Z,21.6
2023-01-17T10:31:00.530Z,21.7
2023-01-17T10:32:00.550Z,21.5
2023-01-17T10:33:00.492Z,21.2
2023-01-17T10:34:00.430Z,21.1
2023-01-17T10:35:00.451Z,20.7
2023-01-17T10:36:00.556Z,20.5
2023-01-17T10:37:00.514Z,20.5
2023-01-17T10:38:00.587Z,20.5
2023-01-17T10:39:00.573Z,20.5
2023-01-17T10:40:00.444Z,20.5
2023-01-17T10:41:00.450Z,20.5
2023-01-17T10:42:00.412Z,20.7
2023-01-17T10:43:00.440Z,20.5
2023-01-17T10:44:00.677Z,20.4
2023-01-17T10:45:00.409Z,20.2
2023-01-17T10:46:00.470Z,20.1
2023-01-17T10:47:00.459Z,20.0
2023-01-17T10:48:00.469Z,20.2
2023-01-17T10:49:00.404Z,19.9
2023-01-17T10:50:00.602Z,20.0
2023-01-17T10:51:00.435Z,20.2
2023-01-17T10:52:00.682Z,20.1
2023-01-17T10:53:00.467Z,20.2
2023-01-17T10:54:01.874Z,20.1
2023-01-17T10:55:00.433Z,19.8
2023-01-17T10:56:00.600Z,19.8
2023-01-17T10:57:00.457Z,19.7
2023-01-17T10:58:00.432Z,19.6
2023-01-17T10:59:00.442Z,19.5
2023-01-17T11:00:00.438Z,19.3
2023-01-17T11:01:00.577Z,18.9
2023-01-17T11:02:00.641Z,18.3
2023-01-17T11:03:00.437Z,18.3
2023-01-17T11:04:00.440Z,18.8
2023-01-17T11:05:00.564Z,18.9
2023-01-17T11:06:00.506Z,19.2
2023-01-17T11:07:00.516Z,19.5
2023-01-17T11:08:00.861Z,19.7
2023-01-17T11:09:00.549Z,19.8
2023-01-17T11:10:00.472Z,19.8
2023-01-17T11:11:00.466Z,19.4
2023-01-17T11:12:00.404Z,18.9
2023-01-17T11:13:00.413Z,18.8
2023-01-17T11:14:00.509Z,18.9
2023-01-17T11:15:00.413Z,18.9
2023-01-17T11:16:00.501Z,18.4
2023-01-17T11:17:00.442Z,18.4
2023-01-17T11:18:00.453Z,18.6
2023-01-17T11:19:00.439Z,18.7
2023-01-17T11:20:00.589Z,18.9
2023-01-17T11:21:00.434Z,19.0
2023-01-17T11:22:00.419Z,19.0
2023-01-17T11:23:00.562Z,18.9
2023-01-17T11:24:00.531Z,18.9
2023-01-17T11:25:00.474Z,18.9
2023-01-17T11:26:00.626Z,18.9
2023-01-17T11:27:00.510Z,18.7
2023-01-17T11:28:00.541Z,18.6
2023-01-17T11:29:00.459Z,18.4
2023-01-17T11:30:00.459Z,18.2
2023-01-17T11:31:00.628Z,18.2
2023-01-17T11:32:00.525Z,18.4
2023-01-17T11:33:00.441Z,18.5
2023-01-17T11:34:00.458Z,18.4
2023-01-17T11:35:00.439Z,18.3
2023-01-17T11:36:00.479Z,18.4
2023-01-17T11:37:00.550Z,18.3
2023-01-17T11:38:00.479Z,17.9
2023-01-17T11:39:00.438Z,17.0
2023-01-17T11:40:00.527Z,15.8
2023-01-17T11:41:00.519Z,14.7
2023-01-17T11:42:00.480Z,14.1
2023-01-17T11:43:00.525Z,13.5
2023-01-17T11:44:00.446Z,13.1
2023-01-17T11:45:00.438Z,12.6
2023-01-17T11:46:00.484Z,12.3
2023-01-17T11:47:00.489Z,11.9
2023-01-17T11:48:00.476Z,11.5
2023-01-17T11:49:00.524Z,11.1
2023-01-17T11:50:00.497Z,11.0
2023-01-17T11:51:00.451Z,10.8
2023-01-17T11:52:00.507Z,10.6
2023-01-17T11:53:00.458Z,10.5
2023-01-17T11:54:00.416Z,10.3
2023-01-17T11:55:00.571Z,10.2
2023-01-17T11:56:00.435Z,10.2
2023-01-17T11:57:00.453Z,10.1
2023-01-17T11:58:00.468Z,10.0
2023-01-17T11:59:00.409Z,9.8
2023-01-17T12:00:00.469Z,9.7
2023-01-17T12:01:00.642Z,9.6
2023-01-17T12:02:00.530Z,9.6
2023-01-17T12:03:00.567Z,9.6
2023-01-17T12:04:00.628Z,9.6
2023-01-17T12:05:00.617Z,9.5
2023-01-17T12:06:00.527Z,9.5
2023-01-17T12:07:00.733Z,9.4
2023-01-17T12:08:00.487Z,9.4
2023-01-17T12:09:00.506Z,9.4
2023-01-17T12:10:00.447Z,9.4
2023-01-17T12:11:00.480Z,9.3
2023-01-17T12:12:00.467Z,9.2
2023-01-17T12:13:00.601Z,9.2
2023-01-17T12:14:00.492Z,9.1
2023-01-17T12:15:00.468Z,9.1
2023-01-17T12:16:00.461Z,9.0
2023-01-17T12:17:00.440Z,9.0
2023-01-17T12:18:00.433Z,9.0
2023-01-17T12:19:00.490Z,8.9
2023-01-17T12:20:00.489Z,8.9
2023-01-17T12:21:00.435Z,8.9
2023-01-17T12:22:00.470Z,8.9
2023-01-17T12:23:00.914Z,8.9
2023-01-17T12:24:00.436Z,8.9
2023-01-17T12:25:00.471Z,8.9
2023-01-17T12:26:00.737Z,8.8
2023-01-17T12:27:00.419Z,8.8
2023-01-17T12:28:00.444Z,8.8
2023-01-17T12:29:00.553Z,8.7
2023-01-17T12:30:00.713Z,8.6
2023-01-17T12:31:00.632Z,8.6
2023-01-17T12:32:00.448Z,8.5
2023-01-17T12:33:00.456Z,8.4
2023-01-17T12:34:00.528Z,8.4
2023-01-17T12:35:00.595Z,8.3
2023-01-17T12:36:00.778Z,8.3
2023-01-17T12:37:00.474Z,8.2
2023-01-17T12:38:05.116Z,8.1
2023-01-17T12:39:00.550Z,8.1
2023-01-17T12:40:00.444Z,8.1
2023-01-17T12:41:00.450Z,8.0
2023-01-17T12:42:00.579Z,8.0
2023-01-17T12:43:00.518Z,7.9
2023-01-17T12:44:00.425Z,7.8
2023-01-17T12:45:00.479Z,7.8
2023-01-17T12:46:00.446Z,7.7
2023-01-17T12:47:00.531Z,7.7
2023-01-17T12:48:00.468Z,7.6
2023-01-17T12:49:00.470Z,7.5
2023-01-17T12:50:00.419Z,7.5
2023-01-17T12:51:00.493Z,7.5
2023-01-17T12:52:00.476Z,7.4
2023-01-17T12:53:00.636Z,7.4
2023-01-17T12:54:00.430Z,7.4
2023-01-17T12:55:00.481Z,7.4
2023-01-17T12:56:00.429Z,7.3
2023-01-17T12:57:00.433Z,7.3
2023-01-17T12:58:00.637Z,7.2
2023-01-17T12:59:00.772Z,7.1
2023-01-17T13:00:00.416Z,7.0
2023-01-17T13:01:00.655Z,7.0
2023-01-17T13:02:00.594Z,6.9
2023-01-17T13:03:00.415Z,6.9
2023-01-17T13:04:00.468Z,6.8
2023-01-17T13:05:00.527Z,6.8
2023-01-17T13:06:00.485Z,6.7
2023-01-17T13:07:00.461Z,6.7
2023-01-17T13:08:00.434Z,6.7
2023-01-17T13:09:00.489Z,6.7
2023-01-17T13:10:00.440Z,6.7
2023-01-17T13:11:00.589Z,6.7
2023-01-17T13:12:00.511Z,6.7
2023-01-17T13:13:00.649Z,6.7
2023-01-17T13:14:00.597Z,6.6
2023-01-17T13:15:00.411Z,6.6
2023-01-17T13:16:00.515Z,6.5
2023-01-17T13:17:00.555Z,6.4
2023-01-17T13:18:00.446Z,6.4
2023-01-17T13:19:00.443Z,6.3
2023-01-17T13:20:00.426Z,6.2
2023-01-17T13:21:00.409Z,6.1
2023-01-17T13:22:00.409Z,6.1
2023-01-17T13:23:00.617Z,6.0
2023-01-17T13:24:00.481Z,6.0
2023-01-17T13:25:00.496Z,5.9
2023-01-17T13:26:00.512Z,5.8
2023-01-17T13:27:00.448Z,5.9
2023-01-17T13:28:00.428Z,5.8
2023-01-17T13:29:00.658Z,5.8
2023-01-17T13:30:00.645Z,5.7
2023-01-17T13:31:00.500Z,5.6
2023-01-17T13:32:00.491Z,5.6
2023-01-17T13:33:00.457Z,5.7
2023-01-17T13:34:00.495Z,5.7
2023-01-17T13:35:01.737Z,5.7
2023-01-17T13:36:00.591Z,5.7
2023-01-17T13:37:00.515Z,5.6